createdAt,value
2023-02-08T00:01:26.192Z,43.83
2023-02-08T00:04:13.741Z,36.23
2023-02-08T00:07:01.058Z,51.47
2023-02-08T00:09:49.268Z,45.50
2023-02-08T00:12:37.097Z,34.10
2023-02-08T00:15:25.949Z,38.50
2023-02-08T00:18:13.737Z,41.13
2023-02-08T00:21:01.224Z,37.40
2023-02-08T00:23:48.808Z,37.77
2023-02-08T00:26:36.291Z,43.93
2023-02-08T00:29:23.839Z,36.83
2023-02-08T00:32:12.685Z,47.50
2023-02-08T00:34:59.874Z,38.13
2023-02-08T00:37:47.388Z,38.53
2023-02-08T00:40:34.888Z,35.53
2023-02-08T00:43:22.494Z,43.07
2023-02-08T00:46:10.492Z,42.03
2023-02-08T00:48:58.843Z,42.93
2023-02-08T00:51:45.902Z,48.27
2023-02-08T00:54:33.352Z,43.47
2023-02-08T00:57:20.756Z,48.87
2023-02-08T01:00:09.648Z,42.23
2023-02-08T01:02:58.377Z,49.00
2023-02-08T01:05:47.314Z,44.77
2023-02-08T01:08:35.086Z,45.83
2023-02-08T01:11:25.072Z,40.87
2023-02-08T01:14:12.205Z,48.60
2023-02-08T01:16:59.699Z,46.27
2023-02-08T01:19:46.936Z,40.33
2023-02-08T01:22:35.647Z,46.70
2023-02-08T01:25:23.124Z,40.97
2023-02-08T01:28:10.398Z,44.00
2023-02-08T01:30:58.039Z,47.67
2023-02-08T01:33:45.629Z,41.77
2023-02-08T01:36:33.617Z,41.13
2023-02-08T01:39:22.415Z,40.53
2023-02-08T01:42:14.286Z,45.40
2023-02-08T01:45:30.457Z,39.80
2023-02-08T01:48:20.732Z,45.40
2023-02-08T01:51:12.274Z,46.43
2023-02-08T01:54:01.784Z,35.83
2023-02-08T01:56:51.873Z,43.97
2023-02-08T01:59:43.819Z,37.67
2023-02-08T02:02:32.949Z,38.30
2023-02-08T02:05:21.053Z,41.90
2023-02-08T02:08:08.599Z,45.53
2023-02-08T02:10:55.999Z,36.03
2023-02-08T02:13:45.480Z,38.27
2023-02-08T02:16:35.222Z,40.03
2023-02-08T02:19:28.623Z,41.67
2023-02-08T02:22:35.829Z,35.97
2023-02-08T02:25:50.183Z,33.23
2023-02-08T02:28:58.849Z,28.70
2023-02-08T02:32:06.356Z,36.30
2023-02-08T02:35:02.288Z,38.10
2023-02-08T02:38:03.481Z,33.67
2023-02-08T02:41:02.837Z,34.23
2023-02-08T02:43:57.127Z,31.73
2023-02-08T02:46:51.466Z,31.40
2023-02-08T02:49:47.108Z,40.37
2023-02-08T02:52:41.394Z,35.10
2023-02-08T02:55:32.035Z,31.53
2023-02-08T02:58:22.678Z,28.70
2023-02-08T03:01:09.964Z,28.93
2023-02-08T03:03:57.820Z,24.93
2023-02-08T03:06:58.885Z,32.43
2023-02-08T03:09:57.551Z,27.80
2023-02-08T03:12:56.220Z,26.70
2023-02-08T03:15:56.191Z,27.27
2023-02-08T03:18:53.839Z,23.00
2023-02-08T03:21:47.930Z,28.10
2023-02-08T03:24:43.339Z,28.30
2023-02-08T03:27:37.164Z,31.07
2023-02-08T03:30:33.089Z,23.40
2023-02-08T03:33:26.827Z,25.77
2023-02-08T03:36:23.037Z,23.87
2023-02-08T03:39:16.746Z,27.13
2023-02-08T03:42:11.056Z,22.83
2023-02-08T03:45:02.759Z,24.90
2023-02-08T03:47:54.079Z,20.27
2023-02-08T03:50:43.039Z,22.93
2023-02-08T03:53:32.502Z,24.57
2023-02-08T03:56:29.970Z,22.90
2023-02-08T03:59:24.310Z,22.47
2023-02-08T04:02:15.102Z,23.70
2023-02-08T04:05:02.941Z,18.73
2023-02-08T04:07:50.332Z,19.57
2023-02-08T04:10:37.889Z,20.33
2023-02-08T04:13:25.566Z,17.37
2023-02-08T04:16:14.727Z,21.20
2023-02-08T04:19:02.040Z,21.00
2023-02-08T04:21:49.593Z,20.47
2023-02-08T04:24:37.109Z,20.83
2023-02-08T04:27:24.552Z,24.00
2023-02-08T04:30:13.108Z,19.07
2023-02-08T04:33:01.825Z,23.23
2023-02-08T04:35:49.044Z,21.80
2023-02-08T04:38:36.569Z,21.60
2023-02-08T04:41:23.712Z,20.60
2023-02-08T04:44:11.422Z,26.97
2023-02-08T04:46:58.936Z,19.33
2023-02-08T04:49:47.812Z,18.70
2023-02-08T04:52:35.164Z,25.23
2023-02-08T04:55:22.919Z,21.33
2023-02-08T04:58:10.036Z,20.10
2023-02-08T05:00:57.435Z,21.17
2023-02-08T05:03:44.959Z,16.80
2023-02-08T05:06:33.739Z,19.50
2023-02-08T05:09:20.979Z,18.50
2023-02-08T05:12:08.526Z,20.00
2023-02-08T05:14:56.081Z,21.40
2023-02-08T05:17:43.592Z,19.80
2023-02-08T05:20:31.025Z,20.67
2023-02-08T05:23:19.897Z,23.83
2023-02-08T05:26:08.074Z,20.37
2023-02-08T05:28:55.605Z,18.13
2023-02-08T05:31:43.339Z,17.70
2023-02-08T05:34:30.541Z,15.90
2023-02-08T05:37:18.155Z,19.17
2023-02-08T05:40:07.545Z,21.63
2023-02-08T05:42:54.986Z,20.07
2023-02-08T05:45:42.463Z,19.03
2023-02-08T05:48:30.936Z,19.23
2023-02-08T05:51:18.169Z,16.83
2023-02-08T05:54:05.786Z,21.43
2023-02-08T05:56:54.880Z,22.50
2023-02-08T05:59:42.270Z,18.20
2023-02-08T06:02:29.584Z,18.73
2023-02-08T06:05:17.011Z,20.27
2023-02-08T06:08:04.367Z,21.83
2023-02-08T06:10:51.531Z,21.40
2023-02-08T06:13:40.244Z,21.37
2023-02-08T06:16:27.525Z,22.70
2023-02-08T06:19:14.917Z,21.60
2023-02-08T06:22:02.457Z,25.17
2023-02-08T06:24:49.964Z,24.40
2023-02-08T06:27:37.459Z,21.30
2023-02-08T06:30:26.395Z,23.30
2023-02-08T06:33:15.768Z,24.57
2023-02-08T06:36:03.233Z,20.67
2023-02-08T06:38:51.390Z,25.57
2023-02-08T06:41:38.800Z,22.87
2023-02-08T06:44:26.275Z,22.53
2023-02-08T06:47:14.774Z,22.43
2023-02-08T06:50:01.926Z,21.83
2023-02-08T06:52:49.390Z,23.53
2023-02-08T06:55:36.897Z,29.40
2023-02-08T06:58:24.545Z,31.30
2023-02-08T07:01:13.562Z,25.53
2023-02-08T07:04:02.423Z,27.73
2023-02-08T07:06:50.358Z,29.70
2023-02-08T07:09:37.876Z,24.03
2023-02-08T07:12:25.506Z,26.77
2023-02-08T07:15:13.650Z,23.47
2023-02-08T07:18:00.820Z,28.13
2023-02-08T07:20:49.879Z,25.37
2023-02-08T07:23:37.395Z,28.80
2023-02-08T07:26:24.705Z,21.40
2023-02-08T07:29:12.054Z,24.07
2023-02-08T07:31:59.824Z,30.10
2023-02-08T07:34:47.259Z,28.67
2023-02-08T07:37:36.116Z,26.13
2023-02-08T07:40:23.213Z,26.33
2023-02-08T07:43:10.515Z,25.83
2023-02-08T07:46:10.812Z,26.43
2023-02-08T07:48:57.890Z,27.87
2023-02-08T07:51:45.237Z,28.27
2023-02-08T07:54:34.067Z,25.80
2023-02-08T07:57:22.141Z,35.60
2023-02-08T08:00:10.674Z,26.87
2023-02-08T08:02:59.406Z,25.17
2023-02-08T08:05:46.988Z,24.33
2023-02-08T08:08:34.233Z,25.33
2023-02-08T08:11:24.308Z,20.83
2023-02-08T08:14:11.773Z,24.53
2023-02-08T08:16:59.300Z,24.90
2023-02-08T08:19:47.171Z,30.20
2023-02-08T08:22:34.305Z,27.47
2023-02-08T08:25:21.694Z,27.10
2023-02-08T08:28:10.383Z,27.03
2023-02-08T08:30:57.765Z,32.20
2023-02-08T08:33:45.549Z,31.63
2023-02-08T08:41:00.202Z,34.90
2023-02-08T08:43:49.256Z,27.50
2023-02-08T08:46:36.479Z,27.97
2023-02-08T08:49:23.764Z,25.63
2023-02-08T08:52:11.672Z,25.13
2023-02-08T08:54:59.307Z,29.10
2023-02-08T08:57:46.905Z,23.10
2023-02-08T09:00:35.651Z,24.13
2023-02-08T09:03:22.867Z,23.07
2023-02-08T09:06:10.323Z,16.67
2023-02-08T09:08:57.912Z,20.23
2023-02-08T09:11:45.320Z,22.60
2023-02-08T09:14:32.707Z,21.03
2023-02-08T09:17:21.508Z,23.97
2023-02-08T09:20:09.142Z,23.77
2023-02-08T09:22:56.791Z,26.57
2023-02-08T09:25:44.327Z,27.50
2023-02-08T09:28:31.822Z,29.50
2023-02-08T09:31:21.546Z,25.93
2023-02-08T09:34:10.625Z,25.60
2023-02-08T09:36:58.315Z,24.23
2023-02-08T09:39:46.248Z,28.77
2023-02-08T09:42:42.787Z,31.90
2023-02-08T09:45:59.929Z,27.83
2023-02-08T09:48:49.132Z,28.03
2023-02-08T09:51:41.568Z,25.60
2023-02-08T09:54:34.357Z,26.77
2023-02-08T09:57:27.481Z,25.50
2023-02-08T10:00:20.228Z,27.13
2023-02-08T10:03:20.418Z,28.67
2023-02-08T10:06:10.869Z,30.53
2023-02-08T10:09:03.716Z,28.70
2023-02-08T10:12:01.169Z,29.47
2023-02-08T10:15:00.808Z,24.77
2023-02-08T10:18:09.727Z,30.77
2023-02-08T10:21:15.726Z,29.50
2023-02-08T10:24:25.913Z,30.17
2023-02-08T10:27:17.295Z,28.43
2023-02-08T10:30:28.462Z,25.90
2023-02-08T10:33:23.062Z,23.27
2023-02-08T10:36:15.998Z,28.13
2023-02-08T10:39:15.565Z,34.13
2023-02-08T10:42:03.989Z,28.87
2023-02-08T10:45:06.538Z,20.23
2023-02-08T10:48:04.682Z,15.70
2023-02-08T10:50:52.069Z,28.73
2023-02-08T10:53:39.525Z,27.80
2023-02-08T10:56:41.943Z,26.40
2023-02-08T10:59:33.835Z,21.27
2023-02-08T11:02:24.312Z,27.33
2023-02-08T11:05:15.494Z,33.57
2023-02-08T11:08:08.587Z,18.17
2023-02-08T11:11:00.959Z,29.43
2023-02-08T11:13:51.633Z,26.90
2023-02-08T11:16:39.723Z,26.80
2023-02-08T11:19:35.581Z,26.50
2023-02-08T11:22:25.271Z,32.20
2023-02-08T11:25:34.952Z,23.57
2023-02-08T11:28:25.590Z,25.53
2023-02-08T11:31:19.701Z,20.73
2023-02-08T11:34:09.163Z,30.17
2023-02-08T11:36:58.469Z,29.53
2023-02-08T11:39:51.627Z,14.93
2023-02-08T11:42:44.156Z,27.73
2023-02-08T11:45:33.417Z,29.13
2023-02-08T11:48:27.921Z,28.17
2023-02-08T11:51:25.739Z,21.47
2023-02-08T11:54:34.287Z,25.70
2023-02-08T11:57:23.825Z,26.43
2023-02-08T12:00:20.685Z,25.57
2023-02-08T12:03:15.597Z,28.40
2023-02-08T12:06:20.572Z,21.10
2023-02-08T12:09:14.691Z,18.50
2023-02-08T12:12:12.756Z,28.10
2023-02-08T12:15:07.494Z,11.53
2023-02-08T12:18:16.634Z,27.50
2023-02-08T12:21:12.015Z,30.30
2023-02-08T12:24:04.148Z,30.37
2023-02-08T12:27:06.492Z,33.37
2023-02-08T12:30:01.086Z,29.30
2023-02-08T12:33:05.551Z,32.70
2023-02-08T12:36:19.343Z,32.97
2023-02-08T12:39:42.713Z,31.43
2023-02-08T12:42:42.712Z,28.00
2023-02-08T12:45:52.524Z,24.37
2023-02-08T12:49:12.006Z,26.93
2023-02-08T12:52:14.961Z,29.27
2023-02-08T12:55:06.400Z,27.67
2023-02-08T12:57:57.030Z,26.60
2023-02-08T13:00:45.392Z,15.93
2023-02-08T13:03:40.128Z,27.10
2023-02-08T13:06:32.938Z,28.73
2023-02-08T13:09:36.735Z,26.70
2023-02-08T13:12:29.071Z,26.97
2023-02-08T13:15:30.218Z,25.50
2023-02-08T13:18:21.685Z,26.60
2023-02-08T13:21:13.689Z,23.87
2023-02-08T13:24:02.185Z,28.73
2023-02-08T13:26:50.930Z,24.23
2023-02-08T13:29:39.373Z,27.40
2023-02-08T13:32:30.792Z,23.37
2023-02-08T13:35:20.816Z,27.23
2023-02-08T13:38:21.133Z,23.20
2023-02-08T13:41:17.590Z,25.07
2023-02-08T13:44:08.741Z,20.67
2023-02-08T13:46:56.560Z,24.30
2023-02-08T13:49:53.998Z,28.37
2023-02-08T13:52:57.407Z,26.80
2023-02-08T13:56:00.076Z,23.90
2023-02-08T13:59:24.652Z,23.93
2023-02-08T14:02:29.936Z,23.57
2023-02-08T14:05:48.208Z,24.43
2023-02-08T14:08:44.705Z,25.37
2023-02-08T14:11:45.396Z,27.70
2023-02-08T14:14:38.813Z,23.07
2023-02-08T14:17:29.632Z,27.47
2023-02-08T14:20:22.495Z,26.20
2023-02-08T14:23:23.063Z,28.57
2023-02-08T14:26:20.689Z,20.97
2023-02-08T14:29:08.455Z,24.33
2023-02-08T14:31:58.291Z,26.20
2023-02-08T14:34:45.451Z,25.07
2023-02-08T14:37:34.796Z,22.87
2023-02-08T14:40:49.469Z,21.97
2023-02-08T14:43:38.245Z,22.03
2023-02-08T14:46:45.763Z,25.13
2023-02-08T14:49:43.351Z,25.17
2023-02-08T14:52:31.328Z,22.03
2023-02-08T14:55:26.415Z,26.03
2023-02-08T14:58:16.678Z,23.27
2023-02-08T15:01:08.003Z,21.23
2023-02-08T15:04:00.552Z,26.67
2023-02-08T15:07:17.132Z,24.03
2023-02-08T15:10:06.018Z,26.50
2023-02-08T15:12:57.646Z,24.27
2023-02-08T15:15:45.984Z,20.73
2023-02-08T15:18:33.937Z,26.30
2023-02-08T15:21:25.577Z,23.30
2023-02-08T15:24:18.841Z,27.13
2023-02-08T15:27:21.674Z,25.07
2023-02-08T15:30:27.454Z,18.03
2023-02-08T15:33:17.748Z,21.77
2023-02-08T15:36:08.468Z,24.50
2023-02-08T15:38:58.088Z,22.80
2023-02-08T15:41:49.499Z,20.60
2023-02-08T15:44:37.068Z,25.03
2023-02-08T15:47:28.766Z,23.13
2023-02-08T15:50:19.587Z,19.17
2023-02-08T15:53:08.563Z,30.23
2023-02-08T15:55:58.299Z,23.97
2023-02-08T15:58:52.458Z,22.00
2023-02-08T16:01:39.886Z,25.30
2023-02-08T16:04:27.492Z,25.20
2023-02-08T16:07:26.731Z,22.63
2023-02-08T16:10:24.866Z,23.17
2023-02-08T16:13:21.369Z,22.80
2023-02-08T16:16:21.695Z,23.17
2023-02-08T16:19:23.317Z,26.43
2023-02-08T16:22:26.590Z,22.77
2023-02-08T16:25:44.443Z,23.73
2023-02-08T16:28:34.228Z,26.47
2023-02-08T16:31:26.759Z,25.47
2023-02-08T16:34:18.143Z,23.63
2023-02-08T16:37:07.146Z,23.60
2023-02-08T16:39:55.973Z,24.67
2023-02-08T16:42:44.216Z,23.50
2023-02-08T16:45:31.821Z,26.77
2023-02-08T16:48:33.281Z,25.03
2023-02-08T16:51:23.106Z,26.10
2023-02-08T16:54:14.681Z,26.33
2023-02-08T16:57:02.480Z,24.23
2023-02-08T16:59:50.102Z,28.37
2023-02-08T17:02:37.668Z,27.77
2023-02-08T17:05:30.563Z,31.87
2023-02-08T17:08:21.131Z,31.87
2023-02-08T17:11:10.725Z,27.03
2023-02-08T17:13:58.757Z,29.17
2023-02-08T17:16:46.093Z,25.20
2023-02-08T17:19:33.505Z,27.57
2023-02-08T17:22:22.348Z,23.27
2023-02-08T17:25:09.623Z,30.27
2023-02-08T17:27:59.961Z,25.30
2023-02-08T17:30:48.773Z,23.23
2023-02-08T17:33:39.959Z,26.13
2023-02-08T17:36:27.460Z,25.07
2023-02-08T17:39:16.725Z,23.97
2023-02-08T17:42:04.021Z,25.23
2023-02-08T17:44:51.511Z,26.60
2023-02-08T17:47:41.528Z,27.27
2023-02-08T17:50:28.980Z,22.97
2023-02-08T17:53:16.295Z,24.27
2023-02-08T17:56:06.128Z,23.43
2023-02-08T17:58:55.343Z,22.77
2023-02-08T18:01:44.352Z,26.27
2023-02-08T18:04:31.759Z,27.27
2023-02-08T18:07:19.343Z,26.10
2023-02-08T18:10:07.617Z,25.40
2023-02-08T18:12:56.377Z,27.03
2023-02-08T18:15:44.201Z,26.50
2023-02-08T18:18:31.533Z,22.50
2023-02-08T18:21:22.093Z,22.93
2023-02-08T18:24:10.972Z,22.27
2023-02-08T18:26:59.873Z,25.43
2023-02-08T18:29:48.744Z,25.00
2023-02-08T18:32:35.994Z,32.07
2023-02-08T18:35:23.538Z,24.57
2023-02-08T18:38:10.990Z,20.20
2023-02-08T18:40:58.697Z,21.87
2023-02-08T18:43:46.285Z,28.50
2023-02-08T18:46:35.284Z,25.13
2023-02-08T18:49:22.417Z,24.93
2023-02-08T18:52:11.427Z,27.17
2023-02-08T18:54:59.040Z,26.57
2023-02-08T18:57:48.025Z,25.80
2023-02-08T19:00:35.381Z,31.90
2023-02-08T19:03:24.234Z,26.80
2023-02-08T19:06:13.563Z,28.63
2023-02-08T19:09:02.997Z,24.17
2023-02-08T19:11:50.844Z,22.27
2023-02-08T19:14:38.109Z,31.10
2023-02-08T19:17:25.463Z,33.37
2023-02-08T19:20:14.303Z,25.73
2023-02-08T19:23:01.784Z,30.33
2023-02-08T19:25:49.255Z,27.87
2023-02-08T19:28:37.096Z,23.53
2023-02-08T19:31:25.742Z,24.50
2023-02-08T19:34:14.143Z,25.47
2023-02-08T19:37:02.891Z,23.07
2023-02-08T19:39:50.549Z,21.23
2023-02-08T19:42:38.302Z,20.17
2023-02-08T19:45:25.965Z,21.07
2023-02-08T19:48:13.388Z,25.20
2023-02-08T19:51:01.531Z,22.30
2023-02-08T19:53:50.311Z,18.27
2023-02-08T19:56:38.294Z,21.70
2023-02-08T19:59:28.211Z,21.63
2023-02-08T20:02:17.815Z,20.73
2023-02-08T20:05:05.362Z,19.17
2023-02-08T20:07:52.767Z,18.00
2023-02-08T20:10:42.557Z,20.40
2023-02-08T20:13:29.806Z,21.57
2023-02-08T20:16:18.313Z,18.33
2023-02-08T20:19:06.476Z,19.57
2023-02-08T20:21:54.232Z,25.43
2023-02-08T20:24:41.600Z,20.60
2023-02-08T20:27:32.188Z,20.67
2023-02-08T20:30:19.888Z,22.03
2023-02-08T20:33:07.409Z,22.33
2023-02-08T20:35:55.419Z,21.33
2023-02-08T20:38:43.234Z,21.13
2023-02-08T20:41:33.813Z,20.40
2023-02-08T20:44:22.858Z,23.37
2023-02-08T20:47:10.692Z,18.73
2023-02-08T20:49:59.603Z,21.83
2023-02-08T20:52:49.029Z,23.53
2023-02-08T20:55:36.655Z,20.53
2023-02-08T20:58:23.976Z,22.30
2023-02-08T21:01:16.106Z,17.70
2023-02-08T21:04:04.969Z,19.20
2023-02-08T21:06:53.002Z,16.67
2023-02-08T21:09:40.660Z,17.97
2023-02-08T21:12:28.154Z,25.93
2023-02-08T21:15:15.700Z,18.87
2023-02-08T21:18:04.534Z,17.73
2023-02-08T21:20:52.131Z,21.13
2023-02-08T21:23:39.899Z,14.27
2023-02-08T21:26:27.572Z,18.03
2023-02-08T21:29:14.925Z,20.23
2023-02-08T21:32:02.362Z,14.93
2023-02-08T21:34:52.105Z,18.23
2023-02-08T21:37:39.345Z,15.73
2023-02-08T21:40:26.652Z,17.63
2023-02-08T21:43:14.136Z,19.20
2023-02-08T21:46:03.737Z,19.57
2023-02-08T21:49:09.167Z,13.97
2023-02-08T21:52:15.233Z,21.07
2023-02-08T21:55:02.355Z,13.67
2023-02-08T21:57:49.537Z,20.50
2023-02-08T22:00:37.003Z,11.90
2023-02-08T22:03:24.581Z,16.27
2023-02-08T22:06:11.719Z,19.07
2023-02-08T22:09:00.469Z,17.37
2023-02-08T22:11:49.304Z,12.67
2023-02-08T22:14:37.041Z,17.80
2023-02-08T22:17:24.279Z,26.40
2023-02-08T22:20:13.097Z,15.43
2023-02-08T22:23:01.837Z,18.37
2023-02-08T22:25:50.517Z,19.73
2023-02-08T22:28:37.985Z,18.40
2023-02-08T22:31:25.613Z,15.50
2023-02-08T22:34:13.170Z,18.17
2023-02-08T22:37:03.640Z,16.30
2023-02-08T22:39:51.150Z,20.60
2023-02-08T22:42:41.055Z,17.63
2023-02-08T22:45:28.180Z,20.60
2023-02-08T22:48:15.641Z,21.07
2023-02-08T22:51:06.914Z,17.17
2023-02-08T22:53:56.206Z,15.47
2023-02-08T22:56:43.305Z,17.10
2023-02-08T22:59:32.364Z,18.13
2023-02-08T23:02:19.877Z,21.27
2023-02-08T23:05:07.940Z,20.83
2023-02-08T23:07:55.446Z,18.87
2023-02-08T23:10:43.446Z,15.23
2023-02-08T23:13:32.356Z,17.17
2023-02-08T23:16:21.046Z,15.93
2023-02-08T23:19:08.187Z,16.23
2023-02-08T23:21:59.354Z,16.40
2023-02-08T23:24:46.742Z,17.27
2023-02-08T23:27:34.174Z,19.90
2023-02-08T23:30:21.770Z,14.60
2023-02-08T23:33:10.413Z,17.17
2023-02-08T23:35:57.495Z,17.37
2023-02-08T23:38:45.484Z,16.23
2023-02-08T23:41:34.158Z,16.93
2023-02-08T23:44:21.463Z,14.43
2023-02-08T23:47:08.919Z,17.17
2023-02-08T23:49:57.926Z,17.80
2023-02-08T23:52:45.137Z,15.00
2023-02-08T23:55:32.363Z,16.00
2023-02-08T23:58:19.804Z,16.80
